createdAt,value
2022-09-16T00:00:48.044Z,25.17
2022-09-16T00:03:17.932Z,20.10
2022-09-16T00:05:50.392Z,23.03
2022-09-16T00:08:18.937Z,18.55
2022-09-16T00:10:46.230Z,27.40
2022-09-16T00:13:14.158Z,23.10
2022-09-16T00:15:51.279Z,19.92
2022-09-16T00:18:20.580Z,21.05
2022-09-16T00:20:51.114Z,25.08
2022-09-16T00:23:19.368Z,27.27
2022-09-16T00:25:54.181Z,29.73
2022-09-16T00:28:22.349Z,22.63
2022-09-16T00:30:50.333Z,17.17
2022-09-16T00:33:18.434Z,18.90
2022-09-16T00:35:46.507Z,24.45
2022-09-16T00:38:13.884Z,26.23
2022-09-16T00:40:49.849Z,21.90
2022-09-16T00:43:19.214Z,23.23
2022-09-16T00:45:57.150Z,19.60
2022-09-16T00:48:27.611Z,29.17
2022-09-16T00:50:59.954Z,22.33
2022-09-16T00:53:31.502Z,28.15
2022-09-16T00:56:01.056Z,29.80
2022-09-16T00:58:31.032Z,16.88
2022-09-16T01:00:58.233Z,25.63
2022-09-16T01:03:26.333Z,23.30
2022-09-16T01:05:53.787Z,23.20
2022-09-16T01:08:21.088Z,19.88
2022-09-16T01:10:48.223Z,26.30
2022-09-16T01:13:16.308Z,23.38
2022-09-16T01:16:02.265Z,17.23
2022-09-16T01:18:38.161Z,19.40
2022-09-16T01:21:39.169Z,21.70
2022-09-16T01:27:01.993Z,19.98
2022-09-16T01:29:58.548Z,15.53
2022-09-16T01:32:39.815Z,19.98
2022-09-16T01:35:09.899Z,19.40
2022-09-16T01:38:07.381Z,18.60
2022-09-16T01:40:58.170Z,21.98
2022-09-16T01:44:07.901Z,25.20
2022-09-16T01:46:40.673Z,19.88
2022-09-16T01:49:32.340Z,22.10
2022-09-16T01:52:21.075Z,20.60
2022-09-16T01:54:51.257Z,19.17
2022-09-16T01:57:32.348Z,24.75
2022-09-16T02:00:14.502Z,29.15
2022-09-16T02:02:53.482Z,19.25
2022-09-16T02:05:46.237Z,22.42
2022-09-16T02:08:19.185Z,24.30
2022-09-16T02:10:53.943Z,20.73
2022-09-16T02:13:30.284Z,23.92
2022-09-16T02:16:04.058Z,21.02
2022-09-16T02:18:37.298Z,26.38
2022-09-16T02:21:07.292Z,16.85
2022-09-16T02:23:50.771Z,20.20
2022-09-16T02:26:23.287Z,19.73
2022-09-16T02:28:53.916Z,23.02
2022-09-16T02:31:26.758Z,20.08
2022-09-16T02:34:08.092Z,21.35
2022-09-16T02:36:38.148Z,23.98
2022-09-16T02:39:10.051Z,17.73
2022-09-16T02:41:39.641Z,26.17
2022-09-16T02:44:08.800Z,25.05
2022-09-16T02:47:08.671Z,25.65
2022-09-16T02:49:51.377Z,26.13
2022-09-16T02:52:33.941Z,28.55
2022-09-16T02:55:15.094Z,21.65
2022-09-16T02:57:42.459Z,28.42
2022-09-16T03:00:10.370Z,20.92
2022-09-16T03:02:37.675Z,23.42
2022-09-16T03:05:06.077Z,22.83
2022-09-16T03:07:34.071Z,23.20
2022-09-16T03:10:01.308Z,23.25
2022-09-16T03:12:50.415Z,20.58
2022-09-16T03:15:42.422Z,21.10
2022-09-16T03:18:46.895Z,21.92
2022-09-16T03:21:28.900Z,19.10
2022-09-16T03:24:14.721Z,20.33
2022-09-16T03:27:00.780Z,20.30
2022-09-16T03:29:39.784Z,26.58
2022-09-16T03:32:21.940Z,19.50
2022-09-16T03:34:55.655Z,26.23
2022-09-16T03:37:27.438Z,18.88
2022-09-16T03:40:00.324Z,28.88
2022-09-16T03:42:27.453Z,20.73
2022-09-16T03:44:54.709Z,17.30
2022-09-16T03:47:21.805Z,20.25
2022-09-16T03:49:48.916Z,20.92
2022-09-16T03:52:18.630Z,22.60
2022-09-16T03:54:46.150Z,30.83
2022-09-16T03:57:13.202Z,21.33
2022-09-16T03:59:41.241Z,18.33
2022-09-16T04:02:08.310Z,20.73
2022-09-16T04:04:54.298Z,20.85
2022-09-16T04:07:21.382Z,19.88
2022-09-16T04:09:48.515Z,26.98
2022-09-16T04:12:15.590Z,19.65
2022-09-16T04:14:42.727Z,22.17
2022-09-16T04:17:09.891Z,29.77
2022-09-16T04:19:36.998Z,20.30
2022-09-16T04:22:04.105Z,19.23
2022-09-16T04:24:31.216Z,28.15
2022-09-16T04:26:58.421Z,21.95
2022-09-16T04:29:25.512Z,20.27
2022-09-16T04:31:52.583Z,18.77
2022-09-16T04:34:19.697Z,26.25
2022-09-16T04:36:46.943Z,24.75
2022-09-16T04:39:14.200Z,28.48
2022-09-16T04:41:41.596Z,27.50
2022-09-16T04:44:10.499Z,30.15
2022-09-16T04:46:37.650Z,30.67
2022-09-16T04:49:04.987Z,26.35
2022-09-16T04:51:33.002Z,25.88
2022-09-16T04:54:01.551Z,18.20
2022-09-16T04:56:31.582Z,25.17
2022-09-16T04:59:01.103Z,25.55
2022-09-16T05:01:33.907Z,23.00
2022-09-16T05:04:03.382Z,25.15
2022-09-16T05:06:36.740Z,20.13
2022-09-16T05:09:04.331Z,18.13
2022-09-16T05:11:37.139Z,23.48
2022-09-16T05:14:06.914Z,21.65
2022-09-16T05:16:34.572Z,25.13
2022-09-16T05:19:05.021Z,19.83
2022-09-16T05:21:35.399Z,26.80
2022-09-16T05:24:04.483Z,29.33
2022-09-16T05:26:32.804Z,30.15
2022-09-16T05:29:05.635Z,20.58
2022-09-16T05:31:36.328Z,30.02
2022-09-16T05:36:37.760Z,23.10
2022-09-16T05:39:22.095Z,22.20
2022-09-16T05:41:56.939Z,27.00
2022-09-16T05:44:24.462Z,22.98
2022-09-16T05:46:51.945Z,20.00
2022-09-16T05:49:21.016Z,23.88
2022-09-16T05:51:49.294Z,25.45
2022-09-16T05:54:18.755Z,32.97
2022-09-16T05:56:47.204Z,22.92
2022-09-16T05:59:15.640Z,25.70
2022-09-16T06:01:43.257Z,23.05
2022-09-16T06:04:12.601Z,18.88
2022-09-16T06:06:41.887Z,23.15
2022-09-16T06:09:12.063Z,28.58
2022-09-16T06:11:42.011Z,26.05
2022-09-16T06:14:10.286Z,27.83
2022-09-16T06:16:38.337Z,22.17
2022-09-16T06:19:10.567Z,26.52
2022-09-16T06:21:38.369Z,18.88
2022-09-16T06:24:08.925Z,23.00
2022-09-16T06:29:06.349Z,20.10
2022-09-16T06:31:34.438Z,18.73
2022-09-16T06:34:01.933Z,24.35
2022-09-16T06:36:32.384Z,21.70
2022-09-16T06:38:59.742Z,29.45
2022-09-16T06:41:26.800Z,24.88
2022-09-16T06:43:53.980Z,21.65
2022-09-16T06:46:26.196Z,18.85
2022-09-16T06:48:58.515Z,18.13
2022-09-16T06:51:29.891Z,22.90
2022-09-16T06:54:04.015Z,21.55
2022-09-16T06:56:31.179Z,21.20
2022-09-16T06:58:58.311Z,19.60
2022-09-16T07:01:28.466Z,25.67
2022-09-16T07:03:57.562Z,22.90
2022-09-16T07:06:49.539Z,19.25
2022-09-16T07:09:15.070Z,22.25
2022-09-16T07:11:42.269Z,17.25
2022-09-16T07:14:09.764Z,23.55
2022-09-16T07:16:36.891Z,18.63
2022-09-16T07:19:04.777Z,24.58
2022-09-16T07:21:31.997Z,21.63
2022-09-16T07:24:02.582Z,20.73
2022-09-16T07:29:03.808Z,19.42
2022-09-16T07:31:34.343Z,21.08
2022-09-16T07:34:04.383Z,18.30
2022-09-16T07:39:01.636Z,32.22
2022-09-16T07:41:32.533Z,19.85
2022-09-16T07:46:29.995Z,17.70
2022-09-16T07:48:59.393Z,19.50
2022-09-16T07:51:28.015Z,27.60
2022-09-16T07:54:02.298Z,22.10
2022-09-16T07:56:31.613Z,16.80
2022-09-16T07:58:58.740Z,23.70
2022-09-16T08:01:26.213Z,16.90
2022-09-16T08:03:53.685Z,19.90
2022-09-16T08:06:23.700Z,20.95
2022-09-16T08:08:55.326Z,18.30
2022-09-16T08:11:23.044Z,16.27
2022-09-16T08:13:50.270Z,17.52
2022-09-16T08:16:19.709Z,12.45
2022-09-16T08:18:49.213Z,23.80
2022-09-16T08:21:21.654Z,21.08
2022-09-16T08:23:49.117Z,18.17
2022-09-16T08:26:17.931Z,14.93
2022-09-16T08:29:07.452Z,20.80
2022-09-16T08:31:33.827Z,22.77
2022-09-16T08:34:00.896Z,26.55
2022-09-16T08:36:28.077Z,17.83
2022-09-16T08:38:56.719Z,24.17
2022-09-16T08:41:33.646Z,18.00
2022-09-16T08:44:21.939Z,25.15
2022-09-16T08:46:51.969Z,18.80
2022-09-16T08:49:28.532Z,21.13
2022-09-16T08:51:57.250Z,20.77
2022-09-16T08:54:48.992Z,22.02
2022-09-16T08:57:20.598Z,25.83
2022-09-16T08:59:57.802Z,19.33
2022-09-16T09:02:38.874Z,21.30
2022-09-16T09:05:31.449Z,15.88
2022-09-16T09:08:29.717Z,15.60
2022-09-16T09:11:08.272Z,16.13
2022-09-16T09:14:10.637Z,16.70
2022-09-16T09:17:01.752Z,16.60
2022-09-16T09:19:53.107Z,15.15
2022-09-16T09:22:25.856Z,15.35
2022-09-16T09:25:10.894Z,18.83
2022-09-16T09:27:40.789Z,18.90
2022-09-16T09:30:33.824Z,20.95
2022-09-16T09:33:22.143Z,20.45
2022-09-16T09:36:11.807Z,25.48
2022-09-16T09:38:57.573Z,19.20
2022-09-16T09:41:36.825Z,17.30
2022-09-16T09:44:30.071Z,18.83
2022-09-16T09:47:03.530Z,14.75
2022-09-16T09:49:41.175Z,12.73
2022-09-16T09:52:16.671Z,14.43
2022-09-16T09:54:51.162Z,20.77
2022-09-16T09:57:33.145Z,12.65
2022-09-16T10:00:16.320Z,17.88
2022-09-16T10:02:49.648Z,20.35
2022-09-16T10:05:26.277Z,14.48
2022-09-16T10:07:57.567Z,12.80
2022-09-16T10:10:29.992Z,14.80
2022-09-16T10:13:08.057Z,10.65
2022-09-16T10:15:35.226Z,15.57
2022-09-16T10:18:13.725Z,13.40
2022-09-16T10:20:44.461Z,11.35
2022-09-16T10:23:19.709Z,10.50
2022-09-16T10:25:46.872Z,13.38
2022-09-16T10:28:26.743Z,13.05
2022-09-16T10:30:56.685Z,18.25
2022-09-16T10:33:37.421Z,12.60
2022-09-16T10:41:16.451Z,13.50
2022-09-16T10:43:56.729Z,12.02
2022-09-16T10:46:24.837Z,11.05
2022-09-16T10:48:57.294Z,8.95
2022-09-16T10:51:29.601Z,10.00
2022-09-16T10:53:59.784Z,12.38
2022-09-16T10:56:30.068Z,9.27
2022-09-16T10:59:10.540Z,10.10
2022-09-16T11:01:47.192Z,9.07
2022-09-16T11:04:18.331Z,9.15
2022-09-16T11:07:03.330Z,10.55
2022-09-16T11:09:44.389Z,12.50
2022-09-16T11:12:32.136Z,9.93
2022-09-16T11:15:20.014Z,13.02
2022-09-16T11:18:05.058Z,8.88
2022-09-16T11:20:50.193Z,14.02
2022-09-16T11:23:26.905Z,18.45
2022-09-16T11:25:53.939Z,8.48
2022-09-16T11:28:41.928Z,12.80
2022-09-16T11:31:12.066Z,12.73
2022-09-16T11:34:11.651Z,9.20
2022-09-16T11:37:07.015Z,8.02
2022-09-16T11:39:37.229Z,11.73
2022-09-16T11:42:24.108Z,13.63
2022-09-16T11:45:42.165Z,11.10
2022-09-16T11:48:24.088Z,11.13
2022-09-16T11:51:41.404Z,8.75
2022-09-16T11:56:56.246Z,10.90
2022-09-16T11:59:40.031Z,10.75
2022-09-16T12:02:17.035Z,8.02
2022-09-16T12:04:55.817Z,10.35
2022-09-16T12:07:46.287Z,9.05
2022-09-16T12:10:25.106Z,6.43
2022-09-16T12:13:15.638Z,7.40
2022-09-16T12:15:50.041Z,9.70
2022-09-16T12:18:21.845Z,11.45
2022-09-16T12:21:09.097Z,8.80
2022-09-16T12:23:43.228Z,10.75
2022-09-16T12:26:34.991Z,8.20
2022-09-16T12:29:33.584Z,7.30
2022-09-16T12:32:09.930Z,11.50
2022-09-16T12:34:43.643Z,9.68
2022-09-16T12:37:10.694Z,14.85
2022-09-16T12:39:38.529Z,11.20
2022-09-16T12:42:20.750Z,12.63
2022-09-16T12:44:50.574Z,16.58
2022-09-16T12:47:45.463Z,11.80
2022-09-16T12:50:13.190Z,14.55
2022-09-16T12:52:59.312Z,14.93
2022-09-16T12:55:50.666Z,20.75
2022-09-16T12:58:17.735Z,10.57
2022-09-16T13:01:00.268Z,12.50
2022-09-16T13:03:31.800Z,19.23
2022-09-16T13:06:07.541Z,13.00
2022-09-16T13:08:35.729Z,12.82
2022-09-16T13:14:00.160Z,11.50
2022-09-16T13:16:29.183Z,17.20
2022-09-16T13:19:23.808Z,12.95
2022-09-16T13:21:57.638Z,16.25
2022-09-16T13:24:39.246Z,13.65
2022-09-16T13:27:31.658Z,14.27
2022-09-16T13:30:13.669Z,15.18
2022-09-16T13:32:53.192Z,11.68
2022-09-16T13:35:21.052Z,13.45
2022-09-16T13:37:54.600Z,11.88
2022-09-16T13:40:21.829Z,12.77
2022-09-16T13:42:49.112Z,11.32
2022-09-16T13:45:34.109Z,15.65
2022-09-16T13:48:14.046Z,14.55
2022-09-16T13:50:45.061Z,15.65
2022-09-16T13:53:28.850Z,14.23
2022-09-16T13:56:20.563Z,11.52
2022-09-16T13:59:22.313Z,11.55
2022-09-16T14:02:29.545Z,8.45
2022-09-16T14:05:09.200Z,9.18
2022-09-16T14:07:56.551Z,13.48
2022-09-16T14:10:35.402Z,14.80
2022-09-16T14:13:14.580Z,10.00
2022-09-16T14:15:49.446Z,12.63
2022-09-16T14:18:21.277Z,11.65
2022-09-16T14:21:04.570Z,18.90
2022-09-16T14:23:33.820Z,16.48
2022-09-16T14:26:18.915Z,14.93
2022-09-16T14:28:46.496Z,19.45
2022-09-16T14:31:22.817Z,14.70
2022-09-16T14:33:57.130Z,19.15
2022-09-16T14:36:30.463Z,15.57
2022-09-16T14:39:11.900Z,15.48
2022-09-16T14:42:02.745Z,17.50
2022-09-16T14:44:47.986Z,28.13
2022-09-16T14:47:39.431Z,27.17
2022-09-16T14:50:21.132Z,16.50
2022-09-16T14:52:57.553Z,21.02
2022-09-16T14:55:30.426Z,57.58
2022-09-16T14:58:01.873Z,43.00
2022-09-16T15:00:38.768Z,28.75
2022-09-16T15:03:17.538Z,25.48
2022-09-16T15:05:47.588Z,20.55
2022-09-16T15:08:46.208Z,20.08
2022-09-16T15:11:43.549Z,24.00
2022-09-16T15:14:07.704Z,22.55
2022-09-16T15:16:44.255Z,18.25
2022-09-16T15:19:25.567Z,14.55
2022-09-16T15:21:53.552Z,17.20
2022-09-16T15:24:26.969Z,14.65
2022-09-16T15:26:55.411Z,18.63
2022-09-16T15:29:23.176Z,19.90
2022-09-16T15:31:51.393Z,23.63
2022-09-16T15:34:21.907Z,21.75
2022-09-16T15:36:57.376Z,14.15
2022-09-16T15:39:33.159Z,21.55
2022-09-16T15:42:13.369Z,17.38
2022-09-16T15:44:58.501Z,18.02
2022-09-16T15:47:29.395Z,16.50
2022-09-16T15:50:12.628Z,20.52
2022-09-16T15:53:03.536Z,18.40
2022-09-16T15:58:16.902Z,15.50
2022-09-16T16:01:21.129Z,17.88
2022-09-16T16:03:56.747Z,16.13
2022-09-16T16:06:58.626Z,20.33
2022-09-16T16:09:30.486Z,22.70
2022-09-16T16:12:00.028Z,17.42
2022-09-16T16:14:32.286Z,15.15
2022-09-16T16:17:14.221Z,13.48
2022-09-16T16:19:43.267Z,10.05
2022-09-16T16:22:12.163Z,15.02
2022-09-16T16:24:40.148Z,14.18
2022-09-16T16:27:08.915Z,17.85
2022-09-16T16:29:36.360Z,11.68
2022-09-16T16:32:08.202Z,12.75
2022-09-16T16:34:41.522Z,17.27
2022-09-16T16:37:19.152Z,13.75
2022-09-16T16:39:55.974Z,14.75
2022-09-16T16:42:24.980Z,10.52
2022-09-16T16:44:52.459Z,10.27
2022-09-16T16:47:19.843Z,13.13
2022-09-16T16:49:51.391Z,12.73
2022-09-16T16:52:19.055Z,15.48
2022-09-16T16:54:46.832Z,15.57
2022-09-16T16:57:14.850Z,13.10
2022-09-16T16:59:43.662Z,15.00
2022-09-16T17:02:15.399Z,12.55
2022-09-16T17:04:43.516Z,17.55
2022-09-16T17:07:27.872Z,21.20
2022-09-16T17:09:57.512Z,14.93
2022-09-16T17:12:26.523Z,14.43
2022-09-16T17:14:54.223Z,16.08
2022-09-16T17:17:21.563Z,14.07
2022-09-16T17:19:48.820Z,15.88
2022-09-16T17:22:16.446Z,15.23
2022-09-16T17:24:43.639Z,16.60
2022-09-16T17:27:15.146Z,15.68
2022-09-16T17:29:42.646Z,15.20
2022-09-16T17:32:10.066Z,18.23
2022-09-16T17:34:38.749Z,15.70
2022-09-16T17:37:08.492Z,17.83
2022-09-16T17:39:36.067Z,18.70
2022-09-16T17:42:03.483Z,21.08
2022-09-16T17:44:31.020Z,21.88
2022-09-16T17:46:58.284Z,19.77
2022-09-16T17:49:26.103Z,20.67
2022-09-16T17:51:54.004Z,23.40
2022-09-16T17:54:22.294Z,25.17
2022-09-16T17:56:50.416Z,24.95
2022-09-16T17:59:18.970Z,23.45
2022-09-16T18:01:46.833Z,23.20
2022-09-16T18:04:14.021Z,23.48
2022-09-16T18:06:46.399Z,26.90
2022-09-16T18:09:16.417Z,26.65
2022-09-16T18:11:45.021Z,24.10
2022-09-16T18:14:23.714Z,26.75
2022-09-16T18:16:51.451Z,28.52
2022-09-16T18:19:19.499Z,23.52
2022-09-16T18:21:49.663Z,23.67
2022-09-16T18:24:17.148Z,20.23
2022-09-16T18:26:44.938Z,17.33
2022-09-16T18:31:46.045Z,19.45
2022-09-16T18:34:15.005Z,18.25
2022-09-16T18:36:43.172Z,24.48
2022-09-16T18:39:14.450Z,18.77
2022-09-16T18:41:43.331Z,16.92
2022-09-16T18:44:17.007Z,19.88
2022-09-16T18:46:44.470Z,18.42
2022-09-16T18:49:13.913Z,16.40
2022-09-16T18:51:48.488Z,16.10
2022-09-16T18:54:25.063Z,17.60
2022-09-16T18:56:53.226Z,17.67
2022-09-16T18:59:24.783Z,18.40
2022-09-16T19:01:54.383Z,18.73
2022-09-16T19:04:24.903Z,18.38
2022-09-16T19:06:54.726Z,17.77
2022-09-16T19:09:23.818Z,16.23
2022-09-16T19:11:56.219Z,19.05
2022-09-16T19:14:27.533Z,18.63
2022-09-16T19:16:55.452Z,19.02
2022-09-16T19:19:23.251Z,18.25
2022-09-16T19:21:50.512Z,20.23
2022-09-16T19:24:21.216Z,18.65
2022-09-16T19:29:17.451Z,17.17
2022-09-16T19:31:47.221Z,17.27
2022-09-16T19:34:16.098Z,18.75
2022-09-16T19:36:44.051Z,14.85
2022-09-16T19:39:12.375Z,20.83
2022-09-16T19:41:40.670Z,16.20
2022-09-16T19:44:12.329Z,14.55
2022-09-16T19:46:42.633Z,13.77
2022-09-16T19:49:15.982Z,17.08
2022-09-16T19:51:43.509Z,15.98
2022-09-16T19:54:10.684Z,16.45
2022-09-16T19:56:38.029Z,16.63
2022-09-16T19:59:06.089Z,21.40
2022-09-16T20:01:35.328Z,19.33
2022-09-16T20:04:05.830Z,19.20
2022-09-16T20:06:36.361Z,17.27
2022-09-16T20:09:06.937Z,17.02
2022-09-16T20:11:37.097Z,20.45
2022-09-16T20:14:07.487Z,19.70
2022-09-16T20:16:37.862Z,16.17
2022-09-16T20:19:08.268Z,19.27
2022-09-16T20:21:35.883Z,18.92
2022-09-16T20:24:07.893Z,19.15
2022-09-16T20:26:36.190Z,22.35
2022-09-16T20:29:03.901Z,18.00
2022-09-16T20:31:33.654Z,20.23
2022-09-16T20:34:01.838Z,23.10
2022-09-16T20:36:30.849Z,18.95
2022-09-16T20:39:01.313Z,18.63
2022-09-16T20:41:31.302Z,20.77
2022-09-16T20:43:59.508Z,22.10
2022-09-16T20:46:37.318Z,20.40
2022-09-16T20:49:08.224Z,23.63
2022-09-16T20:51:35.356Z,19.92
2022-09-16T20:54:08.666Z,20.52
2022-09-16T20:56:39.096Z,18.30
2022-09-16T20:59:12.246Z,19.90
2022-09-16T21:01:41.668Z,21.88
2022-09-16T21:04:13.558Z,22.00
2022-09-16T21:06:40.777Z,19.08
2022-09-16T21:09:10.680Z,24.80
2022-09-16T21:11:38.741Z,22.15
2022-09-16T21:14:07.067Z,22.05
2022-09-16T21:16:36.736Z,22.00
2022-09-16T21:19:09.342Z,24.13
2022-09-16T21:21:39.789Z,20.45
2022-09-16T21:24:17.551Z,21.55
2022-09-16T21:26:46.163Z,21.77
2022-09-16T21:29:21.211Z,21.70
2022-09-16T21:31:49.044Z,22.58
2022-09-16T21:34:19.101Z,25.67
2022-09-16T21:36:46.916Z,24.40
2022-09-16T21:39:15.591Z,21.45
2022-09-16T21:41:47.224Z,24.23
2022-09-16T21:44:15.078Z,23.45
2022-09-16T21:46:46.420Z,24.80
2022-09-16T21:49:24.393Z,24.05
2022-09-16T21:51:54.143Z,21.42
2022-09-16T21:54:22.196Z,20.40
2022-09-16T21:56:50.343Z,22.70
2022-09-16T21:59:19.912Z,20.20
2022-09-16T22:01:49.630Z,22.47
2022-09-16T22:04:20.206Z,19.92
2022-09-16T22:06:48.895Z,17.75
2022-09-16T22:09:16.108Z,15.60
2022-09-16T22:11:43.702Z,17.25
2022-09-16T22:14:11.357Z,21.70
2022-09-16T22:16:39.756Z,18.85
2022-09-16T22:19:09.436Z,20.80
2022-09-16T22:21:39.843Z,17.53
2022-09-16T22:24:07.624Z,17.70
2022-09-16T22:26:35.555Z,19.23
2022-09-16T22:29:03.034Z,22.10
2022-09-16T22:31:32.109Z,23.77
2022-09-16T22:34:01.844Z,20.45
2022-09-16T22:36:31.709Z,17.67
2022-09-16T22:39:01.602Z,18.03
2022-09-16T22:41:29.227Z,21.63
2022-09-16T22:43:56.417Z,15.93
2022-09-16T22:46:29.494Z,14.93
2022-09-16T22:48:58.315Z,16.58
2022-09-16T22:51:26.654Z,16.13
2022-09-16T22:53:54.300Z,17.20
2022-09-16T22:56:28.447Z,26.58
2022-09-16T22:58:56.829Z,15.50
2022-09-16T23:01:27.152Z,15.65
2022-09-16T23:03:57.339Z,15.27
2022-09-16T23:06:26.952Z,13.88
2022-09-16T23:08:54.515Z,18.33
2022-09-16T23:11:28.733Z,12.93
2022-09-16T23:13:56.708Z,13.88
2022-09-16T23:16:29.749Z,14.25
2022-09-16T23:18:59.701Z,16.83
2022-09-16T23:21:27.526Z,14.25
2022-09-16T23:23:56.665Z,12.45
2022-09-16T23:26:26.578Z,14.18
2022-09-16T23:28:56.242Z,12.15
2022-09-16T23:31:26.611Z,15.73
2022-09-16T23:33:54.454Z,12.38
2022-09-16T23:36:24.363Z,15.18
2022-09-16T23:38:52.504Z,12.88
2022-09-16T23:41:22.469Z,13.57
2022-09-16T23:43:50.500Z,12.88
2022-09-16T23:46:21.567Z,13.80
2022-09-16T23:48:52.482Z,14.40
2022-09-16T23:51:24.713Z,14.90
2022-09-16T23:53:56.687Z,10.57
2022-09-16T23:56:23.985Z,13.68
2022-09-16T23:58:51.285Z,14.50
